Wainfleet, United Kingdom
Current Conditions -  °F | °C
As of 2:50 AM on Monday 22 Dec 2014 (Local Time) from EGXC Reporting Station
Broken Clouds Broken Clouds  
Wind Chill: 54°   Ceiling: 2700
Heat Index: 54°   Visibility: 6mi
Dew Point: 50°   Wind: 23mph
Humidity: 88%   Direction: 220°SW
Pressure: 29.88"   Gusts: NA
Location:  53.03°N, 0.27°E
Report Text: EGXC 220250Z 22020KT 9999 FEW022 BKN027 BKN200 12/10 Q1012 BLU
Loading
Personal Weather Stations






























Interactive Weather Map New forecast layout! Learn more

10-Day Weather Forecast

Advertisements
Track Severe Weather on mobile